Tiempo atmosférico en la estación meteorológica de Ciudad Real, Ciudad Real (628 m.)



Fecha
DESCASC
Temp. máxima en grados centígrados (hora)
DESCASC
Temp. mínima en grados centígrados (hora)
DESCASC
Temp. media en grados centígrados
DESCASC
Racha de viento máxima en m/sg (hora)
DESCASC
Velocidad máxima media en intervalos de 10 minutos(hora)
DESCASC
Precipitaciones diarias en mm
DESCASC
Precipitaciones de 00:00 a 06:00 en mm
DESCASC
Precipitaciones de 06:00 a 12:00 en mm
DESCASC
Precipitaciones de 12:00 a 18:00 en mm
DESCASC
Precipitaciones de 18:00 a 24:00 en mm
DESCASC
18-02-2018 14.7 (15:00) 4.2 (08:30) 9.4 6.94 (17:10) 3.33 (16:20) 0 0 0 0 0
17-02-2018 17 (15:00) 0.5 (06:50) 8.8 5.83 (18:30) 2.5 (18:30) 0 0 0 0 0
16-02-2018 11.9 (16:50) 4.4 (05:30) 8.1 3.06 (05:40) 1.67 (05:40) 0 0 0 0 0
15-02-2018 15 (16:10) 7.9 (00:00) 11.5 4.72 (14:30) 2.5 (14:00) 0 0 0 0 0
14-02-2018 11.9 (17:10) 7.1 (00:00) 9.5 9.17 (14:20) 4.17 (09:30) 0 0 0 0 0
13-02-2018 11.7 (15:00) -0.7 (-00:0) 5.5 11.11 (15:50) 5 (14:20) 0 0 0 0 0
12-02-2018 10.2 (01:10) 3.7 (00:00) 6.9 8.06 (14:30) 3.89 (09:30) 1.6 0 0.8 0.8 0
11-02-2018 16.1 (15:40) 2.4 (00:00) 9.3 8.06 (16:50) 4.17 (20:30) 0 0 0 0 0
10-02-2018 10.8 (15:20) 0.3 (00:00) 5.6 8.61 (16:20) 3.61 (16:30) 0 0 0 0 0
09-02-2018 10.6 (15:40) -4.6 (-00:0) 3 5.83 (16:30) 3.06 (16:30) 0 0 0 0 0
08-02-2018 6.7 (15:40) -4 (-00:0) 1.3 10.28 (12:30) 5.56 (12:40) 0 0 0 0 0
07-02-2018 6.1 (14:10) -3.5 (-00:0) 1.3 9.44 (14:50) 4.17 (14:50) 0 0 0 0 0
06-02-2018 5.6 (14:30) 0.9 (00:00) 3.2 8.89 (10:00) 3.61 (09:40) 0.2 0.2 0 0 0
05-02-2018 4.8 (14:20) 1.2 (00:00) 3 5.56 (16:00) 3.06 (16:00) 8.8 0 0 5.2 3.6
04-02-2018 7.1 (13:40) 2 (00:00) 4.5 8.33 (09:30) 3.33 (09:20) 3 1.4 1.6 0 0
03-02-2018 10.8 (15:00) -2.3 (-00:0) 4.3 7.78 (18:00) 3.33 (17:40) 0 0 0 0 0
02-02-2018 8.8 (15:30) 1.2 (00:00) 5 11.11 (15:10) 5.56 (16:50) 0 0 0 0 0
01-02-2018 11.3 (15:20) 0.1 (00:00) 5.7 8.89 (18:00) 4.44 (21:40) 6.2 0 0 0 6.2
31-01-2018 9.2 (17:20) 0.3 (00:00) 4.7 5.83 (10:50) 3.33 (10:50) 0 0 0 0 0
30-01-2018 11.8 (17:00) 0.3 (00:00) 6.1 6.94 (11:00) 4.17 (11:10) 0 0 0 0 0
29-01-2018 13.9 (15:00) 5.4 (00:00) 9.6 11.39 (13:40) 6.39 (14:20) 0 0 0 0 0
28-01-2018 11.4 (15:30) 0.6 (00:00) 6 14.17 (16:10) 7.78 (15:30) 0 0 0 0 0
27-01-2018 9.7 (13:00) 2.6 (00:00) 6.1 11.67 (12:50) 5 (13:50) 0 0 0 0 0
26-01-2018 11 (15:10) 2.8 (00:00) 6.9 10.28 (01:40) 5.56 (01:40) 0 0 0 0 0
25-01-2018 12.4 (14:40) 2.9 (00:00) 7.6 8.33 (19:20) 3.89 (13:20) 2.2 0 0 0.8 1.4
24-01-2018 16.4 (16:00) -0.2 (00:00) 8.1 4.17 (15:40) 2.22 (16:10) 0 0 0 0 0
23-01-2018 12 (16:30) 2 (00:00) 7 2.5 (02:10) 1.67 (02:10) 0 0 0 0 0
22-01-2018 16.4 (16:20) 2.1 (00:00) 9.2 4.44 (17:40) 2.78 (17:40) 0 0 0 0 0

Gráficas

Temp. máximas Temp. mínimas Temp. medias Precipitaciones Rachas de viento máximas Velocidades máximas media en intervalos de 10 minutos

Datos horarios

Fecha y hora oficial Temperatura (ºC) Velocidad del viento (km/h) Dirección del viento Racha (km/h) Dirección de racha Precipitación (mm) Presión (hPa) Tendencia (hPa) Humedad (%)
2018-02-20 23:00:00 9 4 Norte 23 Norte 0 942.9 0.4 60
2018-02-20 22:00:00 10.1 9 Norte 28 Norte 0 943.1 0.9 58
2018-02-20 21:00:00 11.1 8 Nordeste 25 Noroeste 0 942.6 0.6 56
2018-02-20 20:00:00 12.3 11 Noroeste 19 Noroeste 0 942.5 0.3 53
2018-02-20 19:00:00 13.8 12 Norte 23 Norte 0 942.2 -0.3 49
2018-02-20 18:00:00 15.2 13 Noroeste 25 Norte 0 942 -1.2 44
2018-02-20 17:00:00 15.7 12 Noroeste 22 Noroeste 0 942.2 -1.9 44
2018-02-20 16:00:00 16.3 7 Oeste 18 Noroeste 0 942.5 -2.3 44
2018-02-20 15:00:00 16.4 9 Noroeste 22 Norte 0 943.2 -2 43
2018-02-20 14:00:00 16.1 6 Nordeste 21 Nordeste 0 944.1 -1.7 41
2018-02-20 13:00:00 15 8 Norte 30 Nordeste 0 944.8 -1.2 46
2018-02-20 12:00:00 13.8 5 Norte 14 Noroeste 0 945.2 -0.4 52
2018-02-20 11:00:00 11.8 5 Noroeste 12 Noroeste 0 945.8 0.6 60
2018-02-20 10:00:00 9.1 5 Oeste 9 Oeste 0 946 1.2 69
2018-02-20 09:00:00 5.3 3 Sudoeste 8 Oeste 0 945.6 0.7 86
2018-02-20 08:00:00 3.9 3 Sudeste 9 Noroeste 0 945.2 0.5 86
2018-02-20 07:00:00 5 2 Oeste 9 Oeste 0 944.8 -0.3 85
2018-02-20 06:00:00 5.3 4 Noroeste 6 Sudeste 0 944.9 -0.2 84
2018-02-20 05:00:00 5.4 4 Noroeste 9 Noroeste 0 944.7 -0.6 84
2018-02-20 04:00:00 5.6 5 Noroeste 8 Norte 0 945.1 -0.2 83
2018-02-20 03:00:00 6.8 3 Noroeste 11 Norte 0 945.1 -0.3 77
2018-02-20 02:00:00 7.6 3 Norte 13 Norte 0 945.3 0 74
2018-02-20 01:00:00 8.4 6 Norte 18 Norte 0 945.3 0.1 71
2018-02-20 00:00:00 9.1 6 Norte 18 Nordeste 0 945.4 0.6 67
2018-02-19 23:00:00 9.3 8 Norte 14 Norte 0 945.3 0.7 64
2018-02-19 22:00:00 9.6 2 Nordeste 9 Noroeste 0 945.2 0.7 61
2018-02-19 21:00:00 10.6 6 Noroeste 15 Noroeste 0 944.8 0.7 56
2018-02-19 20:00:00 11.8 9 Noroeste 14 Noroeste 0 944.6 0.4 52
2018-02-19 19:00:00 13 5 Norte 17 Norte 0 944.5 0.1 47
2018-02-19 18:00:00 13.9 10 Norte 23 Noroeste 0 944.1 -0.5 44
2018-02-19 17:00:00 14.8 8 Norte 21 Norte 0 944.2 -1 40
2018-02-19 16:00:00 14.9 9 Norte 26 Norte 0 944.4 -1.5 40
2018-02-19 15:00:00 14.4 8 Norte 19 Este 0 944.6 -1.8 44
2018-02-19 14:00:00 13.5 7 Nordeste 16 Nordeste 0 945.2 -1.1 49
2018-02-19 13:00:00 12.4 3 Norte 16 Nordeste 0 945.9 -0.4 53
2018-02-19 12:00:00 11.5 9 Este 14 Nordeste 0 946.4 0.2 54
2018-02-19 11:00:00 10.2 4 Este 9 Nordeste 0 946.3 0.5 59
2018-02-19 10:00:00 6.8 0 Calma 5 Sudoeste 0 946.3 0.8 64
2018-02-19 09:00:00 4 0 Calma 4 Sudoeste 0 946.2 0.6 74
2018-02-19 08:00:00 3.5 2 Sudeste 6 Sudeste 0 945.8 0.3 73
2018-02-19 07:00:00 4.3 0 Calma 5 Sur 0 945.5 0 72
2018-02-19 06:00:00 4.3 2 Este 8 Sudeste 0 945.6 -0.3 72
2018-02-19 05:00:00 4.5 4 Este 9 Nordeste 0 945.5 -0.7 73
2018-02-19 04:00:00 5.1 4 Este 13 Norte 0 945.5 -1.3 75
2018-02-19 03:00:00 6.1 8 Norte 14 Norte 0 945.9 -0.9 70
2018-02-19 02:00:00 4.5 4 Noroeste 7 Noroeste 0 946.2 -0.7 69
2018-02-19 01:00:00 4.4 3 Este 11 Nordeste 0 946.8 -0.2 67
2018-02-19 00:00:00 4.9 0 Calma 4 Noroeste 0 946.8 -0.4 65
2018-02-18 23:00:00 6 2 Noroeste 6 Noroeste 0 946.9 -0.4 62
2018-02-18 22:00:00 7.6 5 Noroeste 9 Noroeste 0 947 0 49
2018-02-18 21:00:00 8.4 5 Noroeste 9 Noroeste 0 947.2 0.3 49
2018-02-18 20:00:00 9.4 6 Noroeste 9 Noroeste 0 947.3 0.5 45
2018-02-18 19:00:00 10.7 6 Norte 17 Nordeste 0 947 0 41
2018-02-18 18:00:00 12 7 Norte 25 Nordeste 0 946.9 -0.6 35
2018-02-18 17:00:00 13.1 8 Norte 23 Este 0 946.8 -1.5 31
2018-02-18 16:00:00 14.1 7 Norte 21 Noroeste 0 947 -2.1 29
2018-02-18 15:00:00 14.6 6 Noroeste 16 Nordeste 0 947.5 -2.2 29
2018-02-18 14:00:00 13.5 7 Nordeste 19 Nordeste 0 948.3 -1.6 32
2018-02-18 13:00:00 12.4 6 Nordeste 17 Nordeste 0 949.1 -0.9 51
2018-02-18 12:00:00 10.9 10 Nordeste 21 Norte 0 949.7 -0.1 53
2018-02-18 11:00:00 8.6 8 Norte 19 Norte 0 949.9 0.5 57
2018-02-18 10:00:00 6 7 Nordeste 18 Nordeste 0 950 0.8 65
2018-02-18 09:00:00 4.5 4 Nordeste 11 Nordeste 0 949.8 0.7 72
2018-02-18 08:00:00 4.6 6 Nordeste 12 Nordeste 0 949.4 0.2 71
2018-02-18 07:00:00 6.2 5 Nordeste 17 Norte 0 949.2 -0.1 68
2018-02-18 06:00:00 6.9 6 Norte 17 Nordeste 0 949.1 -0.6 67
2018-02-18 05:00:00 7.3 8 Norte 21 Norte 0 949.2 -0.6 64
2018-02-18 04:00:00 7.6 5 Norte 13 Norte 0 949.3 -0.6 68
2018-02-18 03:00:00 7.6 5 Nordeste 14 Nordeste 0 949.7 -0.2 73
2018-02-18 02:00:00 8.6 5 Norte 14 Norte 0 949.8 0.3 73
2018-02-18 01:00:00 9.6 4 Nordeste 13 Nordeste 0 949.9 0.6 78
2018-02-18 00:00:00 10 5 Norte 12 Norte 0 949.9 0.7 75
2018-02-17 23:00:00 9.3 2 Nordeste 5 Nordeste 0 949.5 0.4 78
2018-02-17 22:00:00 9.2 2 Nordeste 9 Norte 0 949.3 0.5 77
2018-02-17 21:00:00 10 4 Nordeste 13 Norte 0 949.2 0.9 73
2018-02-17 20:00:00 11.2 5 Nordeste 13 Nordeste 0 949.1 0.9 66
2018-02-17 19:00:00 13 7 Nordeste 21 Nordeste 0 948.8 0.6 61
2018-02-17 18:00:00 14.8 4 Noroeste 13 Noroeste 0 948.3 -0.2 46
2018-02-17 17:00:00 15 5 Noroeste 11 Noroeste 0 948.2 -1 46
2018-02-17 16:00:00 16.2 4 Sudoeste 15 Noroeste 0 948.2 -1.8 47
2018-02-17 15:00:00 16.7 4 Norte 14 Oeste 0 948.5 -1.9 47
2018-02-17 14:00:00 15.6 5 Noroeste 14 Oeste 0 949.2 -1.3 54
2018-02-17 13:00:00 14.2 3 Oeste 9 Noroeste 0 950 -0.5 66
2018-02-17 12:00:00 11.3 4 Noroeste 6 Noroeste 0 950.4 0 75
2018-02-17 11:00:00 7.2 0 Calma 5 Este 0 950.5 0.6 87
2018-02-17 10:00:00 2.7 0 Calma 4 Nordeste 0 950.5 0.7 100
2018-02-17 09:00:00 1 0 Calma 5 Norte 0 950.4 0.8 100
2018-02-17 08:00:00 1 4 Sudeste 5 Sudeste 0 949.9 0.5 100
2018-02-17 07:00:00 0.5 3 Este 4 Este 0 949.8 0.4 100
2018-02-17 06:00:00 0.7 0 Calma 4 Noroeste 0 949.6 0 99
2018-02-17 05:00:00 1.3 0 Calma 3 Noroeste 0 949.4 -0.4 99
2018-02-17 04:00:00 1.8 0 Calma 3 Nordeste 0 949.4 -0.7 98
2018-02-17 03:00:00 2.5 0 Calma 2 Sur 0 949.6 -0.6 96
2018-02-17 02:00:00 3.6 0 Calma 4 Sudeste 0 949.8 -0.1 100
2018-02-17 01:00:00 3.7 2 Sudeste 4 Norte 0 950.1 0.4 98
2018-02-17 00:00:00 4.6 2 Norte 4 Noroeste 0 950.2 0.7 94
2018-02-16 23:00:00 6.3 3 Oeste 6 Oeste 0 949.9 0.3 95
2018-02-16 22:00:00 7 0 Calma 5 Norte 0 949.7 0.4 92
2018-02-16 21:00:00 8.4 0 Calma 5 Este 0 949.5 0.4 90
2018-02-16 20:00:00 9.8 2 Sudeste 8 Sudoeste 0 949.6 0.4 88
2018-02-16 19:00:00 11.1 5 Sudoeste 9 Oeste 0 949.3 -0.2 83
2018-02-16 18:00:00 11.7 4 Oeste 9 Norte 0 949.1 -0.8 79
2018-02-16 17:00:00 11.7 4 Norte 10 Noroeste 0 949.2 -1.5 80
2018-02-16 16:00:00 11.3 2 Norte 9 Noroeste 0 949.5 -2.2 83
2018-02-16 15:00:00 11.4 3 Sudeste 8 Este 0 949.9 -2 81
2018-02-16 14:00:00 10.7 3 Sudeste 8 Norte 0 950.7 -1.2 85
2018-02-16 13:00:00 10 3 Noroeste 8 Este 0 951.7 -0.1 87
2018-02-16 12:00:00 9.6 3 Este 6 Norte 0 951.9 0.5 90
2018-02-16 11:00:00 8.7 4 Nordeste 9 Este 0 951.9 0.6 94
2018-02-16 10:00:00 7.9 3 Este 5 Este 0 951.8 0.5 98
2018-02-16 09:00:00 7 3 Este 8 Sudeste 0 951.4 -0.2 99
2018-02-16 08:00:00 6.1 3 Este 7 Este 0 951.3 -0.1 100
2018-02-16 07:00:00 4.8 2 Este 4 Noroeste 0 951.3 -0.4 98
2018-02-16 06:00:00 4.6 4 Este 11 Sudeste 0 951.6 -0.3 99
2018-02-16 05:00:00 4.8 3 Nordeste 6 Nordeste 0 951.4 -0.8 97
2018-02-16 04:00:00 5.2 3 Nordeste 5 Nordeste 0 951.7 -0.9 97
2018-02-16 03:00:00 5.9 3 Nordeste 6 Este 0 951.9 -0.7 95
2018-02-16 02:00:00 6.7 4 Sudeste 6 Sudeste 0 952.2 0 95
2018-02-16 01:00:00 6.9 3 Este 4 Este 0 952.6 0.3 91
2018-02-16 00:00:00 7.9 0 Calma 6 Sudeste 0 952.6 0.4 90
2018-02-15 23:00:00 8.7 5 Sudeste 10 Sudeste 0 952.2 -0.2 88
2018-02-15 22:00:00 9.6 5 Este 8 Nordeste 0 952.3 0.3 83
2018-02-15 21:00:00 11 3 Oeste 8 Oeste 0 952.2 0.4 77
2018-02-15 20:00:00 12.1 4 Noroeste 10 Oeste 0 952.4 0.7 73
2018-02-15 19:00:00 13.3 4 Noroeste 12 Oeste 0 952 0.2 69
2018-02-15 18:00:00 14.3 4 Noroeste 12 Noroeste 0 951.8 -0.1 65
2018-02-15 17:00:00 14.5 8 Noroeste 15 Noroeste 0 951.7 -0.7 63
2018-02-15 16:00:00 14.7 7 Oeste 15 Noroeste 0 951.8 -1.4 61
2018-02-15 15:00:00 14.8 4 Noroeste 17 Norte 0 951.9 -1.8 61
2018-02-15 14:00:00 14.5 9 Noroeste 15 Noroeste 0 952.4 -0.9 61
2018-02-15 13:00:00 12.1 5 Noroeste 11 Noroeste 0 953.2 0.2 71
2018-02-15 12:00:00 11.6 3 Sudoeste 8 Noroeste 0 953.7 1.3 73
2018-02-15 11:00:00 10.7 4 Oeste 9 Noroeste 0 953.3 1.4 77
2018-02-15 10:00:00 9.6 4 Sudoeste 6 Oeste 0 953 1.2 79
2018-02-15 09:00:00 9 2 Este 6 Sudoeste 0 952.4 0.9 81
2018-02-15 08:00:00 9 0 Calma 7 Oeste 0 951.9 0.7 80
2018-02-15 07:00:00 9 3 Noroeste 11 Oeste 0 951.8 0.5 79
2018-02-15 06:00:00 9 5 Noroeste 10 Oeste 0 951.5 0.5 77
2018-02-15 05:00:00 9.1 5 Noroeste 10 Oeste 0 951.2 0.5 76
2018-02-15 04:00:00 9 6 Sudoeste 14 Sudoeste 0 951.3 0.4 75
2018-02-15 03:00:00 8.9 5 Sudoeste 10 Sudoeste 0 951 0.2 75
2018-02-15 02:00:00 8.9 6 Oeste 13 Oeste 0 950.7 0 74
2018-02-15 01:00:00 8.9 4 Oeste 12 Sudoeste 0 950.9 0.1 74
2018-02-15 00:00:00 9.1 5 Sur 14 Sudoeste 0 950.8 0.5 73
2018-02-14 23:00:00 9.2 6 Oeste 17 Sudoeste 0 950.7 0.5 73
2018-02-14 22:00:00 9.4 4 Sur 14 Oeste 0 950.8 1.1 72
2018-02-14 21:00:00 9.7 5 Oeste 14 Sudoeste 0 950.3 1 70
2018-02-14 20:00:00 10.2 5 Oeste 14 Oeste 0 950.2 0.9 68
2018-02-14 19:00:00 10.5 7 Oeste 21 Noroeste 0 949.7 0.5 66
2018-02-14 18:00:00 11.3 8 Oeste 24 Oeste 0 949.3 0.2 62
2018-02-14 17:00:00 11.8 11 Oeste 24 Oeste 0 949.3 -0.1 61
2018-02-14 16:00:00 11.4 9 Oeste 24 Oeste 0 949.2 -0.6 61
2018-02-14 15:00:00 11.5 12 Oeste 33 Oeste 0 949.1 -1.1 60
2018-02-14 14:00:00 11.3 13 Oeste 29 Noroeste 0 949.4 -0.6 60
2018-02-14 13:00:00 10.9 13 Oeste 27 Sudoeste 0 949.8 0.2 62
2018-02-14 12:00:00 9.7 12 Oeste 27 Oeste 0 950.2 1.4 71
2018-02-14 11:00:00 8.2 10 Oeste 21 Oeste 0 950 1.8 86
2018-02-14 10:00:00 7.6 11 Sudoeste 25 Sudoeste 0 949.6 1.4 86
2018-02-14 09:00:00 7.2 9 Sudoeste 19 Sudoeste 0 948.8 1 86
2018-02-14 08:00:00 7.2 11 Sudoeste 23 Sudoeste 0 948.2 0.3 85
2018-02-14 07:00:00 7.3 8 Sudoeste 18 Sudoeste 0 948.2 0.7 81
2018-02-14 06:00:00 7.4 8 Sudoeste 18 Sudoeste 0 947.8 0.1 80
2018-02-14 05:00:00 7.6 6 Sudoeste 20 Oeste 0 947.9 0 79
2018-02-14 04:00:00 7.7 8 Sudoeste 26 Sudoeste 0 947.5 -0.7 77
2018-02-14 03:00:00 7.8 13 Sudoeste 26 Oeste 0 947.7 -0.6 76
2018-02-14 02:00:00 7.8 11 Oeste 23 Oeste 0 947.9 -0.3 74
2018-02-14 01:00:00 7.9 7 Sudoeste 26 Sudoeste 0 948.2 0.1 73
2018-02-14 00:00:00 8 13 Oeste 28 Sudoeste 0 948.3 0.5 72
2018-02-13 23:00:00 8 13 Sudoeste 23 Oeste 0 948.2 0.3 71
2018-02-13 22:00:00 7.9 13 Oeste 25 Sudoeste 0 948.1 0.7 71
2018-02-13 21:00:00 7.8 13 Oeste 23 Oeste 0 947.8 0.7 70
2018-02-13 20:00:00 7.4 9 Oeste 28 Sudoeste 0 947.9 0.9 69
2018-02-13 19:00:00 8.3 11 Oeste 24 Oeste 0 947.4 0.5 61
2018-02-13 18:00:00 9.5 16 Oeste 31 Oeste 0 947.1 -0.1 47
2018-02-13 17:00:00 10.2 13 Oeste 35 Oeste 0 947 -0.9 39
2018-02-13 16:00:00 10.9 16 Oeste 40 Oeste 0 946.9 -1.4 35
2018-02-13 15:00:00 11.6 17 Oeste 38 Oeste 0 947.2 -1.3 37
2018-02-13 14:00:00 10.8 16 Oeste 36 Oeste 0 947.9 -0.8 39
2018-02-13 13:00:00 10 14 Oeste 33 Sudoeste 0 948.3 -0.5 38
2018-02-13 12:00:00 8.6 15 Sudoeste 31 Oeste 0 948.5 0.4 57
2018-02-13 11:00:00 6.5 9 Oeste 26 Oeste 0 948.7 0.8 67
2018-02-13 10:00:00 3.8 9 Oeste 22 Oeste 0 948.8 1.3 76
2018-02-13 09:00:00 0.8 8 Sudoeste 15 Sudoeste 0 948.1 0.7 88
2018-02-13 08:00:00 -0.6 3 Sudeste 8 Sudoeste 0 947.9 0.3 93
2018-02-13 07:00:00 0.2 2 Sur 6 Oeste 0 947.5 -0.7 94
2018-02-13 06:00:00 0.6 4 Sudoeste 13 Sudoeste 0 947.4 -0.8 93
2018-02-13 05:00:00 0.3 2 Oeste 6 Oeste 0 947.6 -1 93
2018-02-13 04:00:00 0.7 0 Calma 6 Sudoeste 0 948.2 -0.8 92
2018-02-13 03:00:00 1.2 0 Calma 5 Noroeste 0 948.2 -0.8 90
2018-02-13 02:00:00 2 2 Norte 5 Noroeste 0 948.6 -0.2 86
2018-02-13 01:00:00 3 2 Este 7 Sudeste 0 949 0.5 83
2018-02-13 00:00:00 3.7 0 Calma 5 Sudeste 0 949 1.3 78
2018-02-12 23:00:00 4.2 2 Sudeste 7 Sudeste 0 948.8 1.4 74
2018-02-12 22:00:00 4.4 2 Sudeste 6 Nordeste 0 948.5 1.7 74
2018-02-12 21:00:00 4.8 3 Nordeste 8 Norte 0 947.7 1.2 69
2018-02-12 20:00:00 6 4 Nordeste 9 Nordeste 0 947.4 1.5 69
2018-02-12 19:00:00 7.9 4 Este 8 Nordeste 0 946.8 0.8 73
2018-02-12 18:00:00 9.1 3 Este 8 Nordeste 0 946.5 0.2 68
2018-02-12 17:00:00 9.6 6 Nordeste 15 Nordeste 0 945.9 -0.5 64
2018-02-12 16:00:00 9.9 5 Norte 18 Nordeste 0 946 -0.9 66
2018-02-12 15:00:00 9 11 Nordeste 29 Nordeste 0 946.3 -0.7 74
2018-02-12 14:00:00 8.7 10 Nordeste 26 Nordeste 0 946.4 0.2 81
2018-02-12 13:00:00 7 10 Norte 23 Nordeste 0.8 946.9 1.2 92
2018-02-12 12:00:00 7.7 8 Norte 27 Noroeste 0 947 1.4 86
2018-02-12 11:00:00 9.2 13 Oeste 27 Oeste 0 946.2 0.6 92
2018-02-12 10:00:00 9 12 Oeste 26 Oeste 0.2 945.7 0.1 93
2018-02-12 09:00:00 8.6 12 Oeste 25 Sudoeste 0.4 945.6 -0.3 97
2018-02-12 08:00:00 8.7 8 Sudoeste 23 Oeste 0.2 945.6 -0.5 94
2018-02-12 07:00:00 8.7 10 Sudoeste 23 Sudoeste 0 945.6 -0.8 90
2018-02-12 06:00:00 9.1 6 Oeste 20 Sudoeste 0 945.9 -0.9 89
2018-02-12 05:00:00 9.3 9 Oeste 19 Oeste 0 946.1 -1.2 88
2018-02-12 04:00:00 9.5 5 Sudoeste 21 Oeste 0 946.4 -1.2 87
2018-02-12 03:00:00 10 11 Sudoeste 22 Sudoeste 0 946.8 -0.8 87
2018-02-12 02:00:00 10.2 10 Oeste 24 Oeste 0 947.3 -0.6 87
2018-02-12 01:00:00 10.1 12 Sudoeste 24 Oeste 0 947.6 -0.6 90
2018-02-12 00:00:00 9.8 12 Oeste 24 Oeste 0 947.6 -0.6 91
2018-02-11 23:00:00 9.5 15 Oeste 29 Sudoeste 0 947.9 -0.1 90
2018-02-11 22:00:00 9.9 14 Oeste 24 Oeste 0 948.2 0.5 86
2018-02-11 21:00:00 10.3 10 Oeste 24 Sudoeste 0 948.2 1.1 80
2018-02-11 20:00:00 11.1 11 Oeste 21 Oeste 0 948 0.7 74
2018-02-11 19:00:00 12.1 6 Oeste 25 Sudoeste 0 947.7 0.1 67
2018-02-11 18:00:00 13.6 9 Oeste 27 Oeste 0 947.1 -1 60
2018-02-11 17:00:00 14.6 13 Oeste 29 Oeste 0 947.3 -1.6 52
2018-02-11 16:00:00 15.8 13 Oeste 26 Oeste 0 947.6 -2 47
2018-02-11 15:00:00 15.6 10 Oeste 20 Oeste 0 948.1 -2.2 46
2018-02-11 14:00:00 14.8 9 Oeste 21 Sudoeste 0 948.9 -1.6 46
2018-02-11 13:00:00 13.6 9 Oeste 20 Oeste 0 949.6 -0.7 46
2018-02-11 12:00:00 11.4 9 Oeste 22 Oeste 0 950.3 0.1 49
2018-02-11 11:00:00 8.8 8 Oeste 16 Oeste 0 950.5 0.8 60
2018-02-11 10:00:00 6.3 6 Sudoeste 15 Sudoeste 0 950.3 1 66
2018-02-11 09:00:00 3 6 Sudoeste 12 Sudoeste 0 950.2 1.1 76
2018-02-11 08:00:00 3.2 4 Oeste 11 Oeste 0 949.7 0.6 74
2018-02-11 07:00:00 3.2 3 Oeste 9 Sudoeste 0 949.3 0.4 69
2018-02-11 06:00:00 3.4 4 Oeste 13 Oeste 0 949.1 0.1 66
2018-02-11 05:00:00 3.5 4 Oeste 14 Noroeste 0 949.1 -0.3 65
2018-02-11 04:00:00 3.3 4 Noroeste 9 Sudoeste 0 948.9 -0.6 64
2018-02-11 03:00:00 2.7 2 Oeste 11 Oeste 0 949 -0.4 66
2018-02-11 02:00:00 3.1 4 Sudoeste 12 Sudoeste 0 949.4 -0.2 64
2018-02-11 01:00:00 2.5 5 Sudoeste 12 Sur 0 949.5 -0.1 68
2018-02-11 00:00:00 3.2 3 Sudoeste 7 Noroeste 0 949.4 -0.1 67
2018-02-10 23:00:00 3.9 7 Noroeste 9 Noroeste 0 949.6 0.4 62
2018-02-10 22:00:00 4.4 3 Norte 14 Norte 0 949.6 1.4 60
2018-02-10 21:00:00 5.8 6 Norte 17 Norte 0 949.5 2.1 54
2018-02-10 20:00:00 6.5 6 Norte 14 Norte 0 949.2 1.9 52
2018-02-10 19:00:00 7.6 5 Norte 15 Nordeste 0 948.2 0.7 49
2018-02-10 18:00:00 9 6 Nordeste 25 Norte 0 947.4 -0.7 44
2018-02-10 17:00:00 9.9 11 Norte 31 Norte 0 947.3 -1.6 38
2018-02-10 16:00:00 10.4 7 Norte 18 Norte 0 947.5 -2.1 39
2018-02-10 15:00:00 10.4 8 Noroeste 20 Noroeste 0 948.1 -1.9 38
2018-02-10 14:00:00 10.2 5 Norte 16 Nordeste 0 948.9 -0.8 39
2018-02-10 13:00:00 9.5 7 Nordeste 17 Nordeste 0 949.6 -0.2 43
2018-02-10 12:00:00 8.3 6 Nordeste 19 Noroeste 0 950 0.6 45
2018-02-10 11:00:00 6.5 8 Norte 20 Norte 0 949.7 0.9 55
2018-02-10 10:00:00 3.5 4 Nordeste 8 Este 0 949.8 1.5 73
2018-02-10 09:00:00 0.4 2 Sur 8 Sudeste 0 949.4 0.9 93
2018-02-10 08:00:00 1.2 2 Este 8 Sudoeste 0 948.8 0.7 88
2018-02-10 07:00:00 1.6 3 Oeste 9 Sudoeste 0 948.3 0.1 89
2018-02-10 06:00:00 2.5 3 Oeste 9 Oeste 0 948.5 -0.2 87
2018-02-10 05:00:00 2.4 4 Oeste 10 Oeste 0 948.1 -0.3 86
2018-02-10 04:00:00 2.7 6 Oeste 10 Oeste 0 948.2 -0.3 84
2018-02-10 03:00:00 3.4 6 Noroeste 16 Oeste 0 948.7 0.1 80
2018-02-10 02:00:00 3.8 10 Oeste 15 Oeste 0 948.4 -0.5 77
2018-02-10 01:00:00 4 6 Oeste 14 Oeste 0 948.5 -0.2 75
2018-02-10 00:00:00 4.1 5 Oeste 12 Oeste 0 948.6 0.3 73
2018-02-09 23:00:00 4.3 4 Oeste 15 Oeste 0 948.9 1.2 71
2018-02-09 22:00:00 5.3 6 Oeste 16 Oeste 0 948.7 1.3 66
2018-02-09 21:00:00 6 6 Oeste 14 Oeste 0 948.3 1.6 61
2018-02-09 20:00:00 7 6 Oeste 12 Noroeste 0 947.7 1.7 54
2018-02-09 19:00:00 8.3 5 Oeste 15 Noroeste 0 947.4 1.6 50
2018-02-09 18:00:00 9.1 7 Noroeste 15 Noroeste 0 946.7 0.5 45
2018-02-09 17:00:00 9.6 9 Oeste 21 Sudoeste 0 946 -1 40
2018-02-09 16:00:00 9.9 7 Oeste 19 Oeste 0 945.8 -1.4 36
2018-02-09 15:00:00 9.8 5 Sudoeste 17 Oeste 0 946.2 -1.7 37
2018-02-09 14:00:00 8.4 5 Oeste 16 Noroeste 0 947 -0.4 42
2018-02-09 13:00:00 7.1 6 Oeste 16 Oeste 0 947.2 0.2 48
2018-02-09 12:00:00 6.4 6 Oeste 13 Sudoeste 0 947.9 0.9 48
2018-02-09 11:00:00 4.1 3 Oeste 9 Oeste 0 947.4 0.7 59
2018-02-09 10:00:00 0.6 3 Sur 6 Sur 0 947 0.8 74
2018-02-09 09:00:00 -3.9 3 Sudeste 5 Sudeste 0 947 0.7 93
2018-02-09 08:00:00 -4.4 0 Calma 3 Sur 0 946.7 0.4 92
2018-02-09 07:00:00 -4.2 3 Sudeste 4 Sudeste 0 946.2 -0.3 92
2018-02-09 06:00:00 -3.7 0 Calma 5 Oeste 0 946.3 -0.6 88
2018-02-09 05:00:00 -3.3 2 Oeste 6 Noroeste 0 946.3 -0.7 88
2018-02-09 04:00:00 -2.7 0 Calma 6 Noroeste 0 946.5 -0.3 86
2018-02-09 03:00:00 -2.2 4 Noroeste 9 Noroeste 0 946.9 -0.2 83
2018-02-09 02:00:00 -1.9 6 Noroeste 10 Oeste 0 947 -0.2 83
2018-02-09 01:00:00 -1.8 0 Calma 3 Noroeste 0 946.8 -0.1 81
2018-02-09 00:00:00 -1.3 2 Sudeste 7 Nordeste 0 947.1 0.3 79
2018-02-08 23:00:00 -0.2 5 Este 14 Este 0 947.2 0.5 74
2018-02-08 22:00:00 -0.1 2 Este 9 Nordeste 0 946.9 0.6 73
2018-02-08 21:00:00 0.8 4 Nordeste 8 Nordeste 0 946.8 0.9 69
2018-02-08 20:00:00 2 3 Nordeste 9 Nordeste 0 946.7 1.1 65
2018-02-08 19:00:00 3.7 5 Nordeste 15 Nordeste 0 946.3 0.9 63
2018-02-08 18:00:00 5.2 6 Nordeste 21 Nordeste 0 945.9 0.1 50
2018-02-08 17:00:00 5.9 8 Nordeste 23 Nordeste 0 945.6 -0.5 49
2018-02-08 16:00:00 6.5 12 Este 30 Este 0 945.4 -1.4 48
2018-02-08 15:00:00 6.4 14 Este 32 Este 0 945.8 -1.2 49
2018-02-08 14:00:00 6 19 Este 34 Este 0 946.1 -0.8 48
2018-02-08 13:00:00 4.8 17 Nordeste 37 Nordeste 0 946.8 -0.1 54
2018-02-08 12:00:00 3.6 16 Este 34 Nordeste 0 947 0.5 57
2018-02-08 11:00:00 2.2 14 Este 26 Este 0 946.9 0.9 64
2018-02-08 10:00:00 -0.3 8 Este 12 Este 0 946.9 1.6 71
2018-02-08 09:00:00 -3.5 2 Nordeste 6 Nordeste 0 946.5 1.3 82
2018-02-08 08:00:00 -4 3 Este 5 Este 0 946 0.9 86
2018-02-08 07:00:00 -3.6 2 Este 7 Norte 0 945.3 0.3 84
2018-02-08 06:00:00 -2.7 4 Nordeste 9 Nordeste 0 945.2 0.1 81
2018-02-08 05:00:00 -2.5 5 Nordeste 14 Nordeste 0 945.1 0 79
2018-02-08 04:00:00 -2.3 5 Nordeste 13 Norte 0 945 0 79
2018-02-08 03:00:00 -2.2 5 Nordeste 14 Nordeste 0 945.1 0.3 80
2018-02-08 02:00:00 -1.7 8 Nordeste 15 Nordeste 0 945.1 0.8 80
2018-02-08 01:00:00 -1.4 8 Nordeste 17 Nordeste 0 945 1.1 81
2018-02-08 00:00:00 -1.2 6 Este 9 Este 0 944.8 0.8 81
2018-02-07 23:00:00 -0.7 5 Nordeste 8 Nordeste 0 944.3 0.6 79
2018-02-07 22:00:00 0.1 3 Nordeste 11 Norte 0 943.9 1.1 77
2018-02-07 21:00:00 0.9 4 Norte 12 Este 0 944 1.9 76
2018-02-07 20:00:00 2 5 Nordeste 13 Nordeste 0 943.7 1.8 70
2018-02-07 19:00:00 3.7 5 Nordeste 17 Nordeste 0 942.8 1.2 67
2018-02-07 18:00:00 4.5 10 Nordeste 26 Nordeste 0 942.1 0.2 58
2018-02-07 17:00:00 4.7 9 Norte 28 Nordeste 0 941.9 -0.4 60
2018-02-07 16:00:00 5 10 Norte 28 Nordeste 0 941.6 -1.2 56
2018-02-07 15:00:00 5.4 12 Nordeste 34 Nordeste 0 941.9 -1 54
2018-02-07 14:00:00 5.9 10 Nordeste 27 Nordeste 0 942.3 -0.1 48
2018-02-07 13:00:00 5.3 10 Este 23 Este 0 942.8 0.8 56
2018-02-07 12:00:00 5 9 Nordeste 20 Nordeste 0 942.9 1.5 57
2018-02-07 11:00:00 3.3 7 Norte 13 Norte 0 942.4 1.7 62
2018-02-07 10:00:00 0.8 3 Noroeste 9 Noroeste 0 942 1.7 72
2018-02-07 09:00:00 -2.1 5 Noroeste 9 Noroeste 0 941.4 1.1 85
2018-02-07 08:00:00 -3.2 4 Noroeste 7 Noroeste 0 940.7 0.6 93
2018-02-07 07:00:00 -3.5 3 Noroeste 6 Norte 0 940.3 0.2 94
2018-02-07 06:00:00 -3.2 3 Noroeste 5 Noroeste 0 940.3 0.1 92
2018-02-07 05:00:00 -2.5 2 Noroeste 8 Noroeste 0 940.1 0.4 90
2018-02-07 04:00:00 -2.1 4 Noroeste 5 Noroeste 0 940.1 0.5 91
2018-02-07 03:00:00 -1.5 4 Noroeste 8 Noroeste 0 940.2 0.6 88
2018-02-07 02:00:00 -1.1 0 Calma 5 Sudeste 0 939.7 0.2 83
2018-02-07 01:00:00 0 3 Este 10 Nordeste 0 939.6 0.3 75
2018-02-07 00:00:00 0.9 5 Nordeste 14 Norte 0 939.6 0.7 75
2018-02-06 23:00:00 1.9 5 Este 13 Nordeste 0 939.5 0.9 68
2018-02-06 22:00:00 3 4 Norte 15 Norte 0 939.3 1.4 63
2018-02-06 21:00:00 3.3 7 Noroeste 19 Noroeste 0 938.9 1.7 64
2018-02-06 20:00:00 3.9 6 Norte 13 Norte 0 938.6 1.7 64
2018-02-06 19:00:00 4.4 4 Norte 9 Norte 0 937.9 0.9 66
2018-02-06 18:00:00 4.9 5 Nordeste 16 Norte 0 937.2 0.2 69
2018-02-06 17:00:00 5.4 6 Norte 15 Norte 0 936.9 -0.6 61
2018-02-06 16:00:00 5.1 7 Noroeste 15 Norte 0 937 -0.9 68
2018-02-06 15:00:00 4.8 5 Norte 15 Norte 0 937 -0.8 70
2018-02-06 14:00:00 4.3 3 Nordeste 17 Nordeste 0 937.5 0.4 79
2018-02-06 13:00:00 3.7 8 Nordeste 19 Nordeste 0 937.9 1.3 79
2018-02-06 12:00:00 3.5 6 Norte 22 Norte 0 937.8 2 82
2018-02-06 11:00:00 3.2 9 Nordeste 30 Norte 0 937.1 1.8 83
2018-02-06 10:00:00 2.3 13 Norte 32 Norte 0 936.6 1.6 89
2018-02-06 09:00:00 2.1 7 Norte 14 Norte 0 935.8 1.1 92
2018-02-06 08:00:00 1.8 6 Norte 17 Norte 0 935.3 0.8 92
2018-02-06 07:00:00 1.7 6 Norte 12 Norte 0 935 0.4 94
2018-02-06 06:00:00 1.5 2 Nordeste 8 Nordeste 0 934.7 0.2 100
2018-02-06 05:00:00 1.5 4 Norte 10 Nordeste 0 934.5 0 100
2018-02-06 04:00:00 1.4 3 Norte 9 Nordeste 0 934.6 0.1 100
2018-02-06 03:00:00 1 3 Nordeste 10 Este 0 934.5 0.1 100
2018-02-06 02:00:00 1.2 5 Nordeste 9 Nordeste 0.2 934.5 0.3 100
2018-02-06 01:00:00 1.4 4 Este 8 Este 0 934.5 0.4 100
2018-02-06 00:00:00 1.6 3 Nordeste 7 Nordeste 0 934.4 0.4 99
2018-02-05 23:00:00 1.8 2 Sudeste 6 Sudeste 0 934.2 0.6 99
2018-02-05 22:00:00 1.9 3 Sudeste 7 Sur 0 934.1 0.8 98
2018-02-05 21:00:00 1.9 4 Sudoeste 10 Sudoeste 0 934 1.1 98
2018-02-05 20:00:00 1.5 3 Sudoeste 8 Sur 0 933.6 1.2 98
2018-02-05 19:00:00 1.3 3 Sudoeste 14 Oeste 3.6 933.3 0.8 96
2018-02-05 18:00:00 2.4 7 Noroeste 18 Noroeste 0 932.9 0.4 92
2018-02-05 17:00:00 2.7 4 Sudeste 11 Norte 2.2 932.4 -0.4 95
2018-02-05 16:00:00 2.8 11 Noroeste 20 Noroeste 1.4 932.5 -0.7 89
2018-02-05 15:00:00 3.3 5 Sudeste 18 Noroeste 1.6 932.5 -1 90
2018-02-05 14:00:00 4.6 5 Oeste 14 Noroeste 0 932.8 -0.4 82
2018-02-05 13:00:00 4 4 Oeste 13 Norte 0 933.2 0.2 82
2018-02-05 12:00:00 4.2 8 Noroeste 14 Noroeste 0 933.5 0.6 81
2018-02-05 11:00:00 4.2 5 Oeste 10 Sudoeste 0 933.2 0.8 81
2018-02-05 10:00:00 3 4 Sudoeste 9 Sur 0 933 0.7 89
2018-02-05 09:00:00 2.7 5 Noroeste 11 Noroeste 0 932.9 0.5 89
2018-02-05 08:00:00 2.4 4 Noroeste 7 Norte 0 932.4 -0.1 89
2018-02-05 07:00:00 2.4 2 Norte 8 Norte 0 932.3 -0.5 92
2018-02-05 06:00:00 2.4 3 Noroeste 8 Oeste 0 932.4 -0.7 89
2018-02-05 05:00:00 2.6 2 Sudoeste 8 Oeste 0 932.5 -0.7 86
2018-02-05 04:00:00 2.6 4 Oeste 8 Sudoeste 0 932.8 -0.8 87
2018-02-05 03:00:00 2.5 3 Sudeste 5 Nordeste 0 933.1 -0.7 89
2018-02-05 02:00:00 2.6 2 Norte 10 Norte 0 933.2 -1.1 89
2018-02-05 01:00:00 2.5 4 Norte 10 Norte 0 933.6 -0.9 88
2018-02-05 00:00:00 2.1 2 Norte 5 Este 0 933.8 -0.7 90
2018-02-04 23:00:00 2.2 4 Norte 12 Noroeste 0 934.3 -0.4 90
2018-02-04 22:00:00 2.4 6 Noroeste 10 Noroeste 0 934.5 0 89
2018-02-04 21:00:00 2.7 4 Noroeste 8 Noroeste 0 934.5 0.3 89
2018-02-04 20:00:00 3.7 2 Norte 10 Norte 0 934.7 0.5 84
2018-02-04 19:00:00 4.5 6 Nordeste 14 Noroeste 0 934.5 0 80
2018-02-04 18:00:00 5.2 4 Norte 16 Nordeste 0 934.2 -0.4 74
2018-02-04 17:00:00 5.5 7 Nordeste 20 Norte 0 934.2 -1 76
2018-02-04 16:00:00 6.4 5 Norte 14 Nordeste 0 934.5 -1.7 68
2018-02-04 15:00:00 6.7 2 Este 14 Noroeste 0 934.6 -2.3 72
2018-02-04 14:00:00 6.5 4 Norte 16 Norte 0 935.2 -1.6 74
2018-02-04 13:00:00 5.8 7 Sudoeste 20 Oeste 0 936.2 -0.5 83
2018-02-04 12:00:00 4.4 6 Sudoeste 16 Sudoeste 0 936.9 0.6 90
2018-02-04 11:00:00 3.8 8 Oeste 12 Oeste 0.4 936.8 0.6 94
2018-02-04 10:00:00 3.2 5 Norte 30 Oeste 1 936.7 0.2 91
2018-02-04 09:00:00 4.7 9 Oeste 20 Oeste 0 936.3 -0.7 93
2018-02-04 08:00:00 5 8 Oeste 18 Sudoeste 0 936.2 -1.4 94
2018-02-04 07:00:00 5.1 11 Oeste 21 Sudoeste 0.2 936.5 -2.1 96
2018-02-04 06:00:00 4.9 7 Sudoeste 22 Sudoeste 0.2 937 -2.5 96
2018-02-04 05:00:00 4.8 9 Sudoeste 20 Sudoeste 0.2 937.6 -3.1 93
2018-02-04 04:00:00 4.7 10 Sudoeste 20 Sudoeste 0 938.6 -3.1 86
2018-02-04 03:00:00 4.5 6 Sudoeste 14 Sudoeste 0 939.5 -2.8 86
2018-02-04 02:00:00 4.3 6 Sudoeste 11 Noroeste 1 940.7 -2.2 82
2018-02-04 01:00:00 4.8 4 Sudoeste 16 Sudoeste 0 941.7 -1.7 75
2018-02-04 00:00:00 5 9 Sudoeste 22 Oeste 0 942.3 -1.8 64
2018-02-03 23:00:00 4.8 12 Sudoeste 22 Oeste 0 942.9 -1.4 63
2018-02-03 22:00:00 5.2 10 Sudoeste 24 Oeste 0 943.4 -1.2 61
2018-02-03 21:00:00 5.4 11 Oeste 20 Sudoeste 0 944.1 -0.2 59
2018-02-03 20:00:00 6.4 9 Oeste 20 Sudoeste 0 944.3 0 54
2018-02-03 19:00:00 7.5 6 Oeste 22 Sudoeste 0 944.6 0.1 44
2018-02-03 18:00:00 9.1 11 Oeste 28 Oeste 0 944.3 -0.9 41
2018-02-03 17:00:00 10 9 Oeste 21 Oeste 0 944.3 -1.6 34
2018-02-03 16:00:00 10.4 11 Noroeste 24 Noroeste 0 944.5 -2.4 34
2018-02-03 15:00:00 10.8 9 Oeste 22 Oeste 0 945.2 -2.2 32
2018-02-03 14:00:00 10.1 10 Oeste 22 Sudoeste 0 945.9 -1.9 34
2018-02-03 13:00:00 9.2 8 Oeste 17 Sudoeste 0 946.9 -0.7 40
2018-02-03 12:00:00 8 7 Sudoeste 15 Sudoeste 0 947.4 0.2 43
2018-02-03 11:00:00 5.4 7 Oeste 13 Oeste 0 947.8 1.1 51
2018-02-03 10:00:00 2 4 Oeste 10 Sudoeste 0 947.6 1.5 66
2018-02-03 09:00:00 -2 3 Sudoeste 8 Sudoeste 0 947.2 1.2 85
2018-02-03 08:00:00 -2.2 0 Calma 8 Sur 0 946.7 1.3 83
2018-02-03 07:00:00 -2 3 Sudeste 8 Sudoeste 0 946.1 0.3 83
2018-02-03 06:00:00 -1.5 3 Sudeste 7 Sur 0 946 0.2 80
2018-02-03 05:00:00 0.3 5 Noroeste 13 Noroeste 0 945.4 -0.4 69
2018-02-03 04:00:00 0.5 5 Noroeste 9 Noroeste 0 945.8 0.5 68
2018-02-03 03:00:00 1.2 8 Noroeste 13 Oeste 0 945.8 0.6 65
2018-02-03 02:00:00 1.6 5 Oeste 12 Sudoeste 0 945.8 0.6 64
2018-02-03 01:00:00 1.9 4 Oeste 14 Oeste 0 945.3 0.7 62
2018-02-03 00:00:00 2.2 5 Noroeste 8 Noroeste 0 945.2 1 61
2018-02-02 23:00:00 2.5 5 Oeste 8 Noroeste 0 945.2 1.5 61
2018-02-02 22:00:00 3.5 4 Noroeste 19 Norte 0 944.6 2.1 56
2018-02-02 21:00:00 3.9 8 Noroeste 16 Noroeste 0 944.2 2.7 54
2018-02-02 20:00:00 4.7 6 Noroeste 18 Norte 0 943.7 2.9 51
2018-02-02 19:00:00 5.8 10 Noroeste 32 Norte 0 942.5 2.6 47
2018-02-02 18:00:00 7.1 17 Noroeste 32 Noroeste 0 941.5 2 43
2018-02-02 17:00:00 7.7 13 Noroeste 37 Noroeste 0 940.8 1.2 41
2018-02-02 16:00:00 8.1 16 Norte 40 Norte 0 939.9 0 37
2018-02-02 15:00:00 8.6 18 Noroeste 31 Norte 0 939.5 -0.4 40
2018-02-02 14:00:00 8.3 17 Noroeste 36 Noroeste 0 939.6 -0.1 47
2018-02-02 13:00:00 7.2 19 Noroeste 37 Noroeste 0 939.9 0.7 50
2018-02-02 12:00:00 6.3 17 Noroeste 31 Noroeste 0 939.9 1.6 57
2018-02-02 11:00:00 5.2 13 Noroeste 30 Noroeste 0 939.7 2 61
2018-02-02 10:00:00 3.3 12 Noroeste 20 Noroeste 0 939.2 2.4 67
2018-02-02 09:00:00 1.7 6 Noroeste 13 Oeste 0 938.3 2.1 74
2018-02-02 08:00:00 1.2 4 Noroeste 21 Norte 0 937.7 1.8 78
2018-02-02 07:00:00 1.9 9 Noroeste 27 Norte 0 936.8 0.9 75
2018-02-02 06:00:00 1.9 10 Norte 21 Norte 0 936.2 0.3 76
2018-02-02 05:00:00 2 6 Norte 17 Norte 0 935.9 -0.3 78
2018-02-02 04:00:00 2.4 4 Noroeste 18 Norte 0 935.9 -0.5 76
2018-02-02 03:00:00 2.6 7 Norte 19 Noroeste 0 935.9 -0.9 75
2018-02-02 02:00:00 3.2 10 Norte 20 Nordeste 0 936.2 -0.3 77
2018-02-02 01:00:00 3.5 6 Norte 18 Norte 0 936.4 0.3 86
2018-02-02 00:00:00 3.8 8 Norte 17 Norte 0 936.8 1.3 86
2018-02-01 23:00:00 4.2 4 Norte 23 Nordeste 0.4 936.5 1 91
2018-02-01 22:00:00 4.8 8 Norte 32 Noroeste 3.2 936.1 0.9 87
2018-02-01 21:00:00 5.6 5 Nordeste 32 Noroeste 1 935.5 0.5 83
2018-02-01 20:00:00 5.7 5 Nordeste 27 Norte 1.6 935.5 0 91
2018-02-01 19:00:00 9.1 11 Oeste 27 Noroeste 0 935.2 -1 71
2018-02-01 18:00:00 10 15 Noroeste 32 Oeste 0 935 -2.5 66
2018-02-01 17:00:00 11.1 10 Oeste 28 Sudoeste 0 935.5 -3.1 58
2018-02-01 16:00:00 10.8 10 Oeste 22 Oeste 0 936.2 -3.5 61
2018-02-01 15:00:00 11 9 Oeste 23 Oeste 0 937.5 -3.1 64
2018-02-01 14:00:00 10.5 11 Oeste 22 Oeste 0 938.6 -2.2 66
2018-02-01 13:00:00 8.6 10 Oeste 21 Noroeste 0 939.7 -1.3 75
2018-02-01 12:00:00 6.9 6 Oeste 16 Oeste 0 940.6 -0.7 86
2018-02-01 11:00:00 5.4 4 Oeste 9 Oeste 0 940.8 -0.5 93
2018-02-01 10:00:00 2.4 3 Sudoeste 7 Oeste 0 941 -0.4 100
2018-02-01 09:00:00 0.7 2 Nordeste 6 Sur 0 941.3 -0.9 100
2018-02-01 08:00:00 0.8 2 Sudoeste 8 Sur 0 941.3 -1.2 100
2018-02-01 07:00:00 0.8 5 Sur 10 Noroeste 0 941.4 -1.8 100
2018-02-01 06:00:00 0.4 6 Noroeste 9 Noroeste 0 942.2 -1 100
2018-02-01 05:00:00 0.3 3 Sur 5 Sudeste 0 942.5 -1.8 97
2018-02-01 04:00:00 1.3 3 Este 8 Sur 0 943.2 -1.7 99
2018-02-01 03:00:00 2 2 Sur 18 Norte 0 943.2 -2.2 97
2018-02-01 02:00:00 2.2 5 Noroeste 9 Sur 0 944.3 -1.4 99
2018-02-01 01:00:00 2.4 2 Sudeste 7 Sur 0 944.9 -1 99
2018-02-01 00:00:00 2.9 3 Noroeste 6 Oeste 0 945.4 -0.9 95
2018-01-31 23:00:00 4.1 5 Oeste 8 Oeste 0 945.7 -0.2 95
2018-01-31 22:00:00 5.3 3 Noroeste 15 Noroeste 0 945.9 -0.3 91
2018-01-31 21:00:00 6 5 Noroeste 13 Noroeste 0 946.3 -0.2 92
2018-01-31 20:00:00 6.6 3 Oeste 17 Noroeste 0 945.9 0 88
2018-01-31 19:00:00 7.5 4 Noroeste 13 Noroeste 0 946.2 -0.9 87
2018-01-31 18:00:00 8.8 6 Sudeste 19 Sudeste 0 946.5 -2 81
2018-01-31 17:00:00 9.1 3 Nordeste 8 Norte 0 945.9 -3.9 79
2018-01-31 16:00:00 8.4 4 Este 9 Sudeste 0 947.1 -3.7 81
2018-01-31 15:00:00 7.4 4 Este 11 Este 0 948.5 -3 84
2018-01-31 14:00:00 6.4 7 Sudeste 13 Sudeste 0 949.8 -1.7 88
2018-01-31 13:00:00 5.6 7 Este 15 Este 0 950.8 -0.6 91
2018-01-31 12:00:00 5.4 12 Este 17 Este 0 951.5 0.3 93
2018-01-31 11:00:00 3.8 9 Este 21 Este 0 951.5 0.5 100
2018-01-31 10:00:00 2.2 10 Este 18 Este 0 951.4 0.8 100
2018-01-31 09:00:00 0.4 4 Este 8 Este 0 951.2 0.7 100
2018-01-31 08:00:00 0.9 5 Este 8 Este 0 951 0.5 99
2018-01-31 07:00:00 1.6 4 Este 11 Nordeste 0 950.6 -0.4 100
2018-01-31 06:00:00 1.7 5 Este 12 Sudeste 0 950.5 -1 98
2018-01-31 05:00:00 1.8 7 Sudeste 11 Sudeste 0 950.5 -1.1 98
2018-01-31 04:00:00 2.3 4 Este 7 Este 0 951 -0.9 97
2018-01-31 03:00:00 3 2 Sudeste 7 Este 0 951.5 -0.5 93
2018-01-31 02:00:00 4 5 Nordeste 11 Este 0 951.6 -0.7 92
2018-01-31 01:00:00 4.4 8 Nordeste 12 Nordeste 0 951.9 -0.4 93
2018-01-31 00:00:00 4.8 5 Este 10 Este 0 952 0 91
2018-01-30 23:00:00 5.6 6 Este 13 Nordeste 0 952.3 0.4 89
2018-01-30 22:00:00 6.1 8 Nordeste 14 Nordeste 0 952.3 0.6 86
2018-01-30 21:00:00 6.8 8 Nordeste 14 Nordeste 0 952 0.5 82
2018-01-30 20:00:00 8 4 Nordeste 10 Nordeste 0 951.9 0.3 76
2018-01-30 19:00:00 9.6 4 Nordeste 12 Nordeste 0 951.7 -0.3 70
2018-01-30 18:00:00 11.3 8 Nordeste 18 Este 0 951.5 -1.2 64
2018-01-30 17:00:00 11.8 11 Este 21 Nordeste 0 951.6 -2.1 62
2018-01-30 16:00:00 11.4 12 Este 23 Este 0 952 -2.7 63
2018-01-30 15:00:00 10.7 13 Este 24 Este 0 952.7 -2.8 67
2018-01-30 14:00:00 9.4 12 Este 21 Este 0 953.7 -1.8 75
2018-01-30 13:00:00 6.4 12 Este 24 Este 0 954.7 -1.1 87
2018-01-30 12:00:00 5.1 13 Este 24 Este 0 955.5 -0.1 91
2018-01-30 11:00:00 3.4 13 Este 25 Este 0 955.5 0.4 99
2018-01-30 10:00:00 2.3 13 Este 22 Este 0 955.8 0.9 100
2018-01-30 09:00:00 0.7 6 Sudeste 11 Sudeste 0 955.6 0.7 100
2018-01-30 08:00:00 1 5 Este 15 Nordeste 0 955.1 0 96
2018-01-30 07:00:00 2 8 Este 14 Este 0 954.9 -0.3 99
2018-01-30 06:00:00 2.1 6 Este 12 Nordeste 0 954.9 -0.7 98
2018-01-30 05:00:00 2.5 6 Este 13 Nordeste 0 955.1 -0.9 97
2018-01-30 04:00:00 3 8 Este 14 Este 0 955.2 -1.2 96
2018-01-30 03:00:00 3.3 8 Este 15 Este 0 955.6 -1 95
2018-01-30 02:00:00 4 6 Este 14 Este 0 956 -0.5 91
2018-01-30 01:00:00 4.8 6 Este 15 Nordeste 0 956.4 -0.1 90
2018-01-30 00:00:00 5.4 6 Nordeste 15 Nordeste 0 956.6 0.1 88
2018-01-29 23:00:00 6 8 Nordeste 19 Nordeste 0 956.5 0.2 86
2018-01-29 22:00:00 6.8 11 Nordeste 22 Este 0 956.5 0.3 83
2018-01-29 21:00:00 7.7 12 Este 26 Este 0 956.5 0.6 79
2018-01-29 20:00:00 8.7 12 Nordeste 23 Nordeste 0 956.3 0.1 76
2018-01-29 19:00:00 10 12 Nordeste 30 Nordeste 0 956.2 -0.5 71
2018-01-29 18:00:00 11.6 14 Nordeste 39 Nordeste 0 955.9 -1.1 66
2018-01-29 17:00:00 13.1 17 Nordeste 35 Nordeste 0 956.2 -1.6 61
2018-01-29 16:00:00 13.6 20 Nordeste 37 Nordeste 0 956.7 -2.3 61
2018-01-29 15:00:00 13.8 16 Nordeste 38 Este 0 957 -2.8 62
2018-01-29 14:00:00 12.6 21 Nordeste 41 Nordeste 0 957.8 -2.2 67
2018-01-29 13:00:00 11.5 18 Nordeste 35 Nordeste 0 959 -0.9 73
2018-01-29 12:00:00 10.3 20 Nordeste 35 Nordeste 0 959.8 0 77
2018-01-29 11:00:00 9.3 19 Este 32 Este 0 960 0.5 83
2018-01-29 10:00:00 7.4 15 Nordeste 30 Nordeste 0 959.9 0.6 89
2018-01-29 09:00:00 6 14 Nordeste 28 Nordeste 0 959.8 0.6 93
2018-01-29 08:00:00 6.1 16 Nordeste 33 Nordeste 0 959.5 0.3 95
2018-01-29 07:00:00 6.4 14 Nordeste 30 Nordeste 0 959.3 -0.3 94
2018-01-29 06:00:00 6.3 12 Nordeste 30 Nordeste 0 959.2 -0.4 95
2018-01-29 05:00:00 6.6 12 Nordeste 35 Este 0 959.2 -0.5 96
2018-01-29 04:00:00 6.9 17 Nordeste 34 Nordeste 0 959.6 -0.1 96
2018-01-29 03:00:00 6.7 18 Nordeste 31 Nordeste 0 959.6 -0.3 97
2018-01-29 02:00:00 6.5 6 Norte 27 Nordeste 0 959.7 -0.1 97
2018-01-29 01:00:00 6.6 18 Nordeste 37 Nordeste 0 959.7 0.3 96
2018-01-29 00:00:00 6.9 16 Nordeste 31 Nordeste 0 959.9 1.2 94
2018-01-28 23:00:00 7.3 15 Nordeste 35 Nordeste 0 959.8 1.4 94
2018-01-28 22:00:00 7.3 20 Nordeste 34 Nordeste 0 959.4 1.4 92
2018-01-28 21:00:00 7.7 17 Nordeste 32 Nordeste 0 958.7 1.2 90
2018-01-28 20:00:00 7.9 11 Nordeste 26 Nordeste 0 958.4 1.2 89
2018-01-28 19:00:00 9.1 12 Nordeste 43 Este 0 958 1.3 67
2018-01-28 18:00:00 10.8 18 Este 36 Este 0 957.5 0.9 60
2018-01-28 17:00:00 11.2 23 Este 51 Nordeste 0 957.2 0.4 57
2018-01-28 16:00:00 11.3 23 Este 49 Este 0 956.7 -0.7 53
2018-01-28 15:00:00 10.2 22 Este 43 Nordeste 0 956.6 -1 76
2018-01-28 14:00:00 9.5 17 Nordeste 38 Nordeste 0 956.8 -0.5 82
2018-01-28 13:00:00 7.4 16 Nordeste 40 Este 0 957.4 1.3 84
2018-01-28 12:00:00 7 17 Nordeste 43 Nordeste 0 957.6 2.1 78
2018-01-28 11:00:00 6.6 21 Este 38 Este 0 957.3 2.3 77
2018-01-28 10:00:00 6.2 18 Nordeste 35 Nordeste 0 956.1 1.3 72
2018-01-28 09:00:00 5.9 14 Nordeste 28 Nordeste 0 955.5 0.8 69
2018-01-28 08:00:00 4.3 8 Norte 23 Nordeste 0 955 0.4 70
2018-01-28 07:00:00 4.4 9 Norte 27 Nordeste 0 954.8 -0.3 69
2018-01-28 06:00:00 4.2 7 Norte 29 Nordeste 0 954.7 -0.6 69
2018-01-28 05:00:00 3.8 12 Norte 31 Norte 0 954.6 -1 69
2018-01-28 04:00:00 2.4 9 Nordeste 21 Nordeste 0 955.1 -0.9 74
2018-01-28 03:00:00 1.1 6 Nordeste 15 Norte 0 955.3 -0.8 80
2018-01-28 02:00:00 0.8 6 Nordeste 16 Nordeste 0 955.6 -0.5 80
2018-01-28 01:00:00 1.9 6 Nordeste 18 Nordeste 0 956 0.3 75
2018-01-28 00:00:00 2.9 10 Nordeste 20 Nordeste 0 956.1 0.9 71
2018-01-27 23:00:00 3.8 12 Nordeste 23 Este 0 956.1 1.6 70
2018-01-27 22:00:00 4.5 9 Nordeste 23 Nordeste 0 955.7 1.9 66
2018-01-27 21:00:00 5.1 7 Nordeste 15 Nordeste 0 955.2 1.7 65
2018-01-27 20:00:00 5.9 8 Nordeste 17 Nordeste 0 954.5 1.2 61
2018-01-27 19:00:00 6.9 7 Nordeste 16 Nordeste 0 953.8 0.5 57
2018-01-27 18:00:00 8.3 6 Nordeste 26 Nordeste 0 953.5 0.1 52
2018-01-27 17:00:00 9.3 12 Norte 31 Norte 0 953.3 -0.5 46
2018-01-27 16:00:00 9.2 17 Nordeste 35 Norte 0 953.3 -1.1 48
2018-01-27 15:00:00 8.7 12 Nordeste 39 Norte 0 953.4 -1.5 50
2018-01-27 14:00:00 8.6 16 Nordeste 38 Norte 0 953.8 -1 50
2018-01-27 13:00:00 9.6 16 Nordeste 42 Nordeste 0 954.4 -0.4 47
2018-01-27 12:00:00 8.5 12 Norte 32 Noroeste 0 954.9 0.2 49
2018-01-27 11:00:00 7.2 14 Norte 34 Norte 0 954.8 0.7 53
2018-01-27 10:00:00 5.2 8 Norte 23 Noroeste 0 954.8 0.9 60
2018-01-27 09:00:00 2.8 4 Noroeste 17 Norte 0 954.7 0.9 71
2018-01-27 08:00:00 2.7 5 Noroeste 15 Noroeste 0 954.1 0.3 71
2018-01-27 07:00:00 2.7 4 Noroeste 14 Noroeste 0 953.9 0.3 72
2018-01-27 06:00:00 2.8 9 Noroeste 15 Oeste 0 953.8 0.3 71
2018-01-27 05:00:00 3 6 Noroeste 17 Noroeste 0 953.8 -0.3 73
2018-01-27 04:00:00 3.4 7 Noroeste 13 Noroeste 0 953.6 -0.4 73
2018-01-27 03:00:00 3.9 4 Norte 19 Norte 0 953.5 -0.6 71
2018-01-27 02:00:00 4 0 Calma 16 Norte 0 954.1 0.6 69
2018-01-27 01:00:00 4.9 10 Noroeste 18 Noroeste 0 954 1.2 66
2018-01-27 00:00:00 4.9 5 Noroeste 17 Noroeste 0 954.1 1.5 65
2018-01-26 23:00:00 5.6 10 Noroeste 23 Noroeste 0 953.5 1.6 60
2018-01-26 22:00:00 6 9 Noroeste 15 Oeste 0 952.8 1.1 61
2018-01-26 21:00:00 6.7 5 Noroeste 13 Oeste 0 952.6 1.5 62
2018-01-26 20:00:00 7.3 7 Noroeste 13 Noroeste 0 951.9 1.4 59
2018-01-26 19:00:00 8 6 Noroeste 23 Noroeste 0 951.7 1.5 56
2018-01-26 18:00:00 9.2 12 Noroeste 25 Norte 0 951.1 1 49
2018-01-26 17:00:00 9.6 7 Noroeste 29 Noroeste 0 950.5 0 45
2018-01-26 16:00:00 9.8 17 Noroeste 29 Noroeste 0 950.2 -0.8 45
2018-01-26 15:00:00 10.7 14 Noroeste 29 Noroeste 0 950.1 -1.1 47
2018-01-26 14:00:00 9.5 18 Noroeste 33 Noroeste 0 950.5 -0.1 48
2018-01-26 13:00:00 8.9 18 Noroeste 31 Noroeste 0 951 1.4 51
2018-01-26 12:00:00 7.5 9 Noroeste 23 Oeste 0 951.2 2.2 67
2018-01-26 11:00:00 5.6 8 Oeste 21 Noroeste 0 950.6 2.2 76
2018-01-26 10:00:00 3.3 11 Noroeste 22 Oeste 0 949.6 1.9 85
2018-01-26 09:00:00 2.9 11 Noroeste 19 Oeste 0 949 2 87
2018-01-26 08:00:00 3.1 4 Oeste 14 Oeste 0 948.4 1.7 88
2018-01-26 07:00:00 3.6 6 Oeste 17 Noroeste 0 947.7 1.4 89
2018-01-26 06:00:00 3.7 5 Noroeste 15 Oeste 0 947 1.4 88
2018-01-26 05:00:00 4 6 Noroeste 15 Oeste 0 946.7 0.6 89
2018-01-26 04:00:00 4.2 6 Oeste 23 Oeste 0 946.3 0.4 91
2018-01-26 03:00:00 4.9 11 Oeste 30 Oeste 0 945.6 -0.1 86
2018-01-26 02:00:00 4.9 17 Noroeste 37 Noroeste 0 946.1 1.1 87
2018-01-26 01:00:00 5.1 13 Noroeste 25 Noroeste 0 945.9 1.1 90
2018-01-26 00:00:00 5.4 7 Oeste 26 Oeste 0 945.7 0.5 91
2018-01-25 23:00:00 5.6 13 Oeste 26 Sudoeste 0 945 -0.2 93
2018-01-25 22:00:00 6.6 8 Oeste 27 Oeste 0 944.8 -0.2 92
2018-01-25 21:00:00 7.5 7 Oeste 18 Oeste 0.2 945.2 0 95
2018-01-25 20:00:00 7.8 8 Oeste 30 Oeste 0.6 945.2 -0.3 92
2018-01-25 19:00:00 8.8 14 Sudoeste 28 Sudoeste 0.6 945 -0.8 96
2018-01-25 18:00:00 9.1 9 Sudoeste 26 Oeste 0.6 945.2 -0.5 94
2018-01-25 17:00:00 9.8 12 Oeste 23 Sudoeste 0.2 945.5 -1.5 84
2018-01-25 16:00:00 10.5 9 Oeste 28 Oeste 0 945.8 -2.4 77
2018-01-25 15:00:00 12.3 12 Sudoeste 24 Sudoeste 0 945.7 -3.5 60
2018-01-25 14:00:00 11.8 12 Oeste 27 Sudoeste 0 947 -2.1 66
2018-01-25 13:00:00 10.8 9 Sudoeste 22 Oeste 0 948.2 -0.8 75
2018-01-25 12:00:00 8.5 5 Oeste 15 Oeste 0 949.2 0.2 94
2018-01-25 11:00:00 7.7 6 Sudoeste 19 Sudoeste 0 949.1 -0.2 93
2018-01-25 10:00:00 5.1 5 Sudoeste 10 Sudoeste 0 949 -0.2 100
2018-01-25 09:00:00 3 3 Sudeste 5 Sur 0 949 -0.4 99
2018-01-25 08:00:00 2.9 2 Sudoeste 9 Sudoeste 0 949.3 -0.2 97
2018-01-25 07:00:00 3.2 0 Calma 4 Sur 0 949.2 -0.9 98
2018-01-25 06:00:00 3.5 0 Calma 5 Sudoeste 0 949.4 -1.2 95
2018-01-25 05:00:00 4.1 3 Sudoeste 6 Sudoeste 0 949.5 -1.5 95
2018-01-25 04:00:00 4.2 3 Sudeste 3 Sudeste 0 950.1 -1.4 94
2018-01-25 03:00:00 4.5 0 Calma 4 Sudoeste 0 950.6 -1.4 93
2018-01-25 02:00:00 4.8 2 Oeste 6 Oeste 0 951 -1 93
2018-01-25 01:00:00 5.5 3 Oeste 5 Oeste 0 951.5 -0.4 91
2018-01-25 00:00:00 6.3 2 Sudoeste 3 Sur 0 952 -0.1 89
2018-01-24 23:00:00 7.1 2 Sur 5 Sudoeste 0 952 -0.1 87
2018-01-24 22:00:00 8.1 2 Sur 5 Sudoeste 0 951.9 0 83
2018-01-24 21:00:00 9.1 3 Sudoeste 6 Sur 0 952.1 0.2 78
2018-01-24 20:00:00 10.8 5 Sudeste 8 Sudeste 0 952.1 0.3 71
2018-01-24 19:00:00 12.8 4 Oeste 8 Sudoeste 0 951.9 -0.1 63
2018-01-24 18:00:00 14.9 5 Oeste 13 Noroeste 0 951.9 -0.5 53
2018-01-24 17:00:00 15.9 5 Oeste 15 Oeste 0 951.8 -1.4 53
2018-01-24 16:00:00 16.4 7 Oeste 15 Sudoeste 0 952 -2.2 52
2018-01-24 15:00:00 14.7 4 Oeste 8 Oeste 0 952.4 -2.5 60
2018-01-24 14:00:00 12 3 Noroeste 8 Noroeste 0 953.2 -1.8 68
2018-01-24 13:00:00 8.6 3 Este 5 Nordeste 0 954.2 -0.6 84
2018-01-24 12:00:00 5.5 3 Este 6 Este 0 954.9 0.4 95
2018-01-24 11:00:00 1.9 3 Este 5 Este 0 955 0.6 100
2018-01-24 10:00:00 0.4 0 Calma 5 Noroeste 0 954.8 0.8 100
2018-01-24 09:00:00 -0.2 2 Norte 5 Norte 0 954.5 0.5 100
2018-01-24 08:00:00 -0.1 2 Norte 5 Norte 0 954.4 0.5 100
2018-01-24 07:00:00 -0.2 3 Nordeste 4 Este 0 954 -0.3 100
2018-01-24 06:00:00 0.5 0 Calma 2 Este 0 954 -0.5 100
2018-01-24 05:00:00 0.4 0 Calma 3 Norte 0 953.9 -0.7 100
2018-01-24 04:00:00 0.6 2 Norte 5 Nordeste 0 954.3 -0.5 99
2018-01-24 03:00:00 1.1 3 Noroeste 5 Norte 0 954.5 -0.5 98
2018-01-24 02:00:00 2 0 Calma 3 Noroeste 0 954.6 -0.2 98
2018-01-24 01:00:00 2.6 0 Calma 5 Sur 0 954.8 0.2 98
2018-01-24 00:00:00 3.5 0 Calma 5 Sur 0 955 0.4 96
2018-01-23 23:00:00 4.7 3 Sudeste 5 Sudeste 0 954.8 0.3 98
2018-01-23 22:00:00 5.3 5 Sudeste 5 Sudeste 0 954.6 0.3 95
2018-01-23 21:00:00 6.5 3 Norte 4 Norte 0 954.6 0.6 93
2018-01-23 20:00:00 8 4 Noroeste 6 Noroeste 0 954.5 0.6 90
2018-01-23 19:00:00 9.3 0 Calma 4 Norte 0 954.3 0.6 87
2018-01-23 18:00:00 10.9 3 Este 8 Sudeste 0 954 -0.2 82
2018-01-23 17:00:00 12 3 Sudeste 8 Sudeste 0 953.9 -1 75
2018-01-23 16:00:00 11.1 2 Norte 4 Noroeste 0 953.7 -1.8 79
2018-01-23 15:00:00 9.3 0 Calma 7 Este 0 954.2 -1.7 85
2018-01-23 14:00:00 6.9 4 Este 8 Sur 0 954.9 -1.1 98
2018-01-23 13:00:00 6 3 Nordeste 7 Este 0 955.5 -0.3 100
2018-01-23 12:00:00 4.8 2 Nordeste 5 Norte 0 955.9 0.5 100
2018-01-23 11:00:00 3.5 3 Este 6 Este 0 956 1.1 100
2018-01-23 10:00:00 2.6 3 Nordeste 5 Este 0 955.8 1.2 100
2018-01-23 09:00:00 2 3 Este 5 Este 0 955.4 1 100
2018-01-23 08:00:00 2.1 3 Este 5 Nordeste 0 954.9 0.2 100
2018-01-23 07:00:00 2.5 3 Este 5 Nordeste 0 954.6 -0.4 100
2018-01-23 06:00:00 2.8 0 Calma 5 Sudeste 0 954.4 -0.6 100
2018-01-23 05:00:00 3 2 Este 4 Este 0 954.7 -0.3 100
2018-01-23 04:00:00 3.4 3 Este 5 Sudoeste 0 955 -0.3 99
2018-01-23 03:00:00 3.9 4 Noroeste 9 Noroeste 0 955 -0.5 99
2018-01-23 02:00:00 5.1 5 Noroeste 9 Noroeste 0 955 -0.1 99
2018-01-23 01:00:00 5.6 3 Sudoeste 6 Oeste 0 955.3 0.6 100
2018-01-23 00:00:00 5.7 0 Calma 10 Sudoeste 0 955.5 0.9 99
2018-01-22 23:00:00 6.3 4 Oeste 13 Sur 0 955.1 0.8 98
2018-01-22 22:00:00 7.7 8 Sudoeste 16 Oeste 0 954.7 0.9 91
2018-01-22 21:00:00 9.2 4 Oeste 11 Oeste 0 954.6 1 85
2018-01-22 20:00:00 10.6 3 Noroeste 10 Oeste 0 954.3 1 76
2018-01-22 19:00:00 12.4 4 Oeste 14 Oeste 0 953.8 0.4 69
2018-01-22 18:00:00 14.5 8 Oeste 16 Oeste 0 953.6 -0.2 59
2018-01-22 17:00:00 15.9 8 Sudoeste 16 Sudoeste 0 953.3 -1 52
2018-01-22 16:00:00 16.2 3 Sur 11 Nordeste 0 953.4 -1.7 57
2018-01-22 15:00:00 15.3 6 Noroeste 9 Oeste 0 953.8 -1.8 62
2018-01-22 14:00:00 15.3 3 Norte 12 Noroeste 0 954.3 -1.7 65
2018-01-22 13:00:00 12.6 4 Noroeste 9 Sudoeste 0 955.1 -0.5 75
2018-01-22 12:00:00 10.3 3 Sur 9 Sudeste 0 955.6 0.2 81
2018-01-22 11:00:00 7 5 Sudeste 8 Sudeste 0 956 0.7 89
2018-01-22 10:00:00 3.4 0 Calma 4 Norte 0 955.6 0.4 100
2018-01-22 09:00:00 2.3 2 Este 8 Noroeste 0 955.4 0.4 99
2018-01-22 08:00:00 3 4 Noroeste 8 Oeste 0 955.3 0.2 100
2018-01-22 07:00:00 2.8 0 Calma 5 Sur 0 955.2 -0.3 99
2018-01-22 06:00:00 3.3 2 Nordeste 5 Oeste 0 955 -0.5 94
2018-01-22 05:00:00 4.4 2 Oeste 5 Sudoeste 0 955.1 -0.9 95
2018-01-22 04:00:00 5.5 2 Sur 8 Sudoeste 0 955.5 -0.8 94
2018-01-22 03:00:00 6.7 3 Sudoeste 8 Sudoeste 0 955.5 -0.9 93
2018-01-22 02:00:00 7.3 4 Sudoeste 13 Oeste 0 956 -0.3 91
2018-01-22 01:00:00 8 5 Oeste 15 Oeste 0 956.3 0 90
2018-01-22 00:00:00 8.7 5 Sudoeste 14 Oeste 0 956.4 0.3 88